sensor_id;sensor_type;location;lat;lon;timestamp;P1;durP1;ratioP1;P2;durP2;ratioP2
16119;SDS011;12670;53.502;10.252;2022-12-01T00:00:16;80.07;;;37.37;;
16119;SDS011;12670;53.502;10.252;2022-12-01T00:03:19;83.83;;;37.43;;
16119;SDS011;12670;53.502;10.252;2022-12-01T00:06:22;77.83;;;37.50;;
16119;SDS011;12670;53.502;10.252;2022-12-01T00:09:26;77.00;;;36.83;;
16119;SDS011;12670;53.502;10.252;2022-12-01T00:12:46;85.83;;;39.47;;
16119;SDS011;12670;53.502;10.252;2022-12-01T00:15:49;77.90;;;36.63;;
16119;SDS011;12670;53.502;10.252;2022-12-01T00:18:52;80.33;;;38.10;;
16119;SDS011;12670;53.502;10.252;2022-12-01T00:21:54;87.30;;;39.93;;
16119;SDS011;12670;53.502;10.252;2022-12-01T00:24:58;80.67;;;37.73;;
16119;SDS011;12670;53.502;10.252;2022-12-01T00:28:01;85.13;;;38.80;;
16119;SDS011;12670;53.502;10.252;2022-12-01T00:31:05;83.03;;;38.93;;
16119;SDS011;12670;53.502;10.252;2022-12-01T00:34:11;81.60;;;38.23;;
16119;SDS011;12670;53.502;10.252;2022-12-01T00:37:28;81.30;;;38.30;;
16119;SDS011;12670;53.502;10.252;2022-12-01T00:40:32;73.70;;;36.77;;
16119;SDS011;12670;53.502;10.252;2022-12-01T00:43:34;77.77;;;37.27;;
16119;SDS011;12670;53.502;10.252;2022-12-01T00:46:37;84.33;;;39.03;;
16119;SDS011;12670;53.502;10.252;2022-12-01T00:49:40;82.80;;;37.53;;
16119;SDS011;12670;53.502;10.252;2022-12-01T00:52:43;82.97;;;38.27;;
16119;SDS011;12670;53.502;10.252;2022-12-01T00:55:47;79.20;;;37.90;;
16119;SDS011;12670;53.502;10.252;2022-12-01T00:58:50;84.10;;;38.20;;
16119;SDS011;12670;53.502;10.252;2022-12-01T01:01:53;87.93;;;39.93;;
16119;SDS011;12670;53.502;10.252;2022-12-01T01:04:55;83.13;;;38.67;;
16119;SDS011;12670;53.502;10.252;2022-12-01T01:07:58;81.07;;;37.97;;
16119;SDS011;12670;53.502;10.252;2022-12-01T01:11:02;86.37;;;38.93;;
16119;SDS011;12670;53.502;10.252;2022-12-01T01:14:06;89.43;;;38.80;;
16119;SDS011;12670;53.502;10.252;2022-12-01T01:17:09;79.77;;;37.77;;
16119;SDS011;12670;53.502;10.252;2022-12-01T01:20:12;83.67;;;38.97;;
16119;SDS011;12670;53.502;10.252;2022-12-01T01:23:15;83.20;;;38.30;;
16119;SDS011;12670;53.502;10.252;2022-12-01T01:26:19;79.97;;;39.00;;
16119;SDS011;12670;53.502;10.252;2022-12-01T01:29:23;84.40;;;39.47;;
16119;SDS011;12670;53.502;10.252;2022-12-01T01:32:26;80.93;;;38.53;;
16119;SDS011;12670;53.502;10.252;2022-12-01T01:35:28;82.13;;;38.43;;
16119;SDS011;12670;53.502;10.252;2022-12-01T01:38:31;84.73;;;38.83;;
16119;SDS011;12670;53.502;10.252;2022-12-01T01:41:36;86.67;;;39.10;;
16119;SDS011;12670;53.502;10.252;2022-12-01T01:44:45;92.00;;;39.53;;
16119;SDS011;12670;53.502;10.252;2022-12-01T01:47:50;95.33;;;40.73;;
16119;SDS011;12670;53.502;10.252;2022-12-01T01:50:54;90.43;;;40.73;;
16119;SDS011;12670;53.502;10.252;2022-12-01T01:54:00;88.73;;;40.10;;
16119;SDS011;12670;53.502;10.252;2022-12-01T01:57:07;83.27;;;37.90;;
16119;SDS011;12670;53.502;10.252;2022-12-01T02:00:13;88.43;;;38.93;;
16119;SDS011;12670;53.502;10.252;2022-12-01T02:03:19;82.80;;;39.27;;
16119;SDS011;12670;53.502;10.252;2022-12-01T02:06:23;92.63;;;40.27;;
16119;SDS011;12670;53.502;10.252;2022-12-01T02:09:26;85.23;;;38.40;;
16119;SDS011;12670;53.502;10.252;2022-12-01T02:12:32;89.30;;;38.43;;
16119;SDS011;12670;53.502;10.252;2022-12-01T02:15:50;87.37;;;39.70;;
16119;SDS011;12670;53.502;10.252;2022-12-01T02:19:01;90.83;;;41.70;;
16119;SDS011;12670;53.502;10.252;2022-12-01T02:22:19;91.90;;;41.67;;
16119;SDS011;12670;53.502;10.252;2022-12-01T02:25:33;92.40;;;41.07;;
16119;SDS011;12670;53.502;10.252;2022-12-01T02:32:30;90.97;;;43.00;;
16119;SDS011;12670;53.502;10.252;2022-12-01T02:35:45;92.13;;;41.23;;
16119;SDS011;12670;53.502;10.252;2022-12-01T02:38:54;94.43;;;41.53;;
16119;SDS011;12670;53.502;10.252;2022-12-01T02:42:04;97.77;;;41.83;;
16119;SDS011;12670;53.502;10.252;2022-12-01T02:45:34;96.57;;;40.87;;
16119;SDS011;12670;53.502;10.252;2022-12-01T02:48:43;88.53;;;40.23;;
16119;SDS011;12670;53.502;10.252;2022-12-01T02:51:50;94.23;;;41.43;;
16119;SDS011;12670;53.502;10.252;2022-12-01T02:54:55;90.87;;;40.00;;
16119;SDS011;12670;53.502;10.252;2022-12-01T02:57:58;88.77;;;39.17;;
16119;SDS011;12670;53.502;10.252;2022-12-01T03:01:05;97.87;;;42.33;;
16119;SDS011;12670;53.502;10.252;2022-12-01T03:04:32;93.73;;;40.80;;
16119;SDS011;12670;53.502;10.252;2022-12-01T03:07:50;89.33;;;40.97;;
16119;SDS011;12670;53.502;10.252;2022-12-01T03:11:02;96.33;;;41.87;;
16119;SDS011;12670;53.502;10.252;2022-12-01T03:14:08;95.90;;;41.33;;
16119;SDS011;12670;53.502;10.252;2022-12-01T03:17:19;99.07;;;41.27;;
16119;SDS011;12670;53.502;10.252;2022-12-01T03:20:31;94.80;;;41.43;;
16119;SDS011;12670;53.502;10.252;2022-12-01T03:23:39;88.63;;;40.20;;
16119;SDS011;12670;53.502;10.252;2022-12-01T03:26:45;102.97;;;41.63;;
16119;SDS011;12670;53.502;10.252;2022-12-01T03:29:52;99.53;;;41.70;;
16119;SDS011;12670;53.502;10.252;2022-12-01T03:32:58;97.43;;;41.90;;
16119;SDS011;12670;53.502;10.252;2022-12-01T03:36:07;101.37;;;42.47;;
16119;SDS011;12670;53.502;10.252;2022-12-01T03:39:16;98.67;;;42.90;;
16119;SDS011;12670;53.502;10.252;2022-12-01T03:42:22;96.90;;;40.60;;
16119;SDS011;12670;53.502;10.252;2022-12-01T03:45:29;95.67;;;41.13;;
16119;SDS011;12670;53.502;10.252;2022-12-01T03:48:36;98.33;;;40.87;;
16119;SDS011;12670;53.502;10.252;2022-12-01T03:51:43;98.63;;;42.17;;
16119;SDS011;12670;53.502;10.252;2022-12-01T03:54:51;102.07;;;43.77;;
16119;SDS011;12670;53.502;10.252;2022-12-01T03:58:02;101.40;;;41.47;;
16119;SDS011;12670;53.502;10.252;2022-12-01T04:01:07;103.87;;;42.77;;
16119;SDS011;12670;53.502;10.252;2022-12-01T04:04:11;104.73;;;42.87;;
16119;SDS011;12670;53.502;10.252;2022-12-01T04:07:17;102.00;;;42.53;;
16119;SDS011;12670;53.502;10.252;2022-12-01T04:10:19;100.87;;;41.70;;
16119;SDS011;12670;53.502;10.252;2022-12-01T04:13:22;104.20;;;42.93;;
16119;SDS011;12670;53.502;10.252;2022-12-01T04:16:24;102.00;;;41.17;;
16119;SDS011;12670;53.502;10.252;2022-12-01T04:19:27;108.13;;;43.50;;
16119;SDS011;12670;53.502;10.252;2022-12-01T04:22:31;102.77;;;41.73;;
16119;SDS011;12670;53.502;10.252;2022-12-01T04:25:34;104.00;;;42.10;;
16119;SDS011;12670;53.502;10.252;2022-12-01T04:28:37;102.80;;;42.07;;
16119;SDS011;12670;53.502;10.252;2022-12-01T04:31:39;92.80;;;40.67;;
16119;SDS011;12670;53.502;10.252;2022-12-01T04:34:42;112.87;;;42.33;;
16119;SDS011;12670;53.502;10.252;2022-12-01T04:37:46;103.10;;;42.30;;
16119;SDS011;12670;53.502;10.252;2022-12-01T04:40:49;105.03;;;42.53;;
16119;SDS011;12670;53.502;10.252;2022-12-01T04:43:52;103.97;;;40.57;;
16119;SDS011;12670;53.502;10.252;2022-12-01T04:46:55;97.70;;;39.47;;
16119;SDS011;12670;53.502;10.252;2022-12-01T04:49:57;99.00;;;41.53;;
16119;SDS011;12670;53.502;10.252;2022-12-01T04:53:02;97.33;;;40.80;;
16119;SDS011;12670;53.502;10.252;2022-12-01T04:56:05;99.13;;;41.37;;
16119;SDS011;12670;53.502;10.252;2022-12-01T04:59:08;97.90;;;40.87;;
16119;SDS011;12670;53.502;10.252;2022-12-01T05:02:11;96.97;;;41.43;;
16119;SDS011;12670;53.502;10.252;2022-12-01T05:05:14;98.60;;;40.87;;
16119;SDS011;12670;53.502;10.252;2022-12-01T05:08:18;99.60;;;40.90;;
16119;SDS011;12670;53.502;10.252;2022-12-01T05:11:21;100.47;;;41.00;;
16119;SDS011;12670;53.502;10.252;2022-12-01T05:14:24;99.57;;;40.27;;
16119;SDS011;12670;53.502;10.252;2022-12-01T05:17:29;100.70;;;40.80;;
16119;SDS011;12670;53.502;10.252;2022-12-01T05:20:37;106.00;;;42.63;;
16119;SDS011;12670;53.502;10.252;2022-12-01T05:23:59;101.70;;;42.27;;
16119;SDS011;12670;53.502;10.252;2022-12-01T05:27:02;103.57;;;41.47;;
16119;SDS011;12670;53.502;10.252;2022-12-01T05:30:05;104.07;;;41.90;;
16119;SDS011;12670;53.502;10.252;2022-12-01T05:33:08;103.90;;;41.50;;
16119;SDS011;12670;53.502;10.252;2022-12-01T05:36:11;109.57;;;42.50;;
16119;SDS011;12670;53.502;10.252;2022-12-01T05:39:15;106.33;;;42.40;;
16119;SDS011;12670;53.502;10.252;2022-12-01T05:42:18;99.63;;;40.77;;
16119;SDS011;12670;53.502;10.252;2022-12-01T05:45:20;105.70;;;41.37;;
16119;SDS011;12670;53.502;10.252;2022-12-01T05:48:23;105.57;;;41.50;;
16119;SDS011;12670;53.502;10.252;2022-12-01T05:51:26;107.53;;;42.93;;
16119;SDS011;12670;53.502;10.252;2022-12-01T05:54:30;101.90;;;40.13;;
16119;SDS011;12670;53.502;10.252;2022-12-01T05:57:32;104.57;;;41.60;;
16119;SDS011;12670;53.502;10.252;2022-12-01T06:00:35;105.57;;;41.50;;
16119;SDS011;12670;53.502;10.252;2022-12-01T06:03:46;113.97;;;42.30;;
16119;SDS011;12670;53.502;10.252;2022-12-01T06:06:48;111.77;;;42.53;;
16119;SDS011;12670;53.502;10.252;2022-12-01T06:09:53;108.63;;;41.40;;
16119;SDS011;12670;53.502;10.252;2022-12-01T06:12:55;106.03;;;42.10;;
16119;SDS011;12670;53.502;10.252;2022-12-01T06:15:58;122.17;;;44.63;;
16119;SDS011;12670;53.502;10.252;2022-12-01T06:19:02;113.23;;;42.03;;
16119;SDS011;12670;53.502;10.252;2022-12-01T06:22:05;106.70;;;41.57;;
16119;SDS011;12670;53.502;10.252;2022-12-01T06:25:09;110.83;;;42.53;;
16119;SDS011;12670;53.502;10.252;2022-12-01T06:28:12;111.27;;;42.03;;
16119;SDS011;12670;53.502;10.252;2022-12-01T06:31:15;109.73;;;42.90;;
16119;SDS011;12670;53.502;10.252;2022-12-01T06:34:18;118.37;;;43.57;;
16119;SDS011;12670;53.502;10.252;2022-12-01T06:37:20;109.07;;;40.70;;
16119;SDS011;12670;53.502;10.252;2022-12-01T06:40:24;110.07;;;42.87;;
16119;SDS011;12670;53.502;10.252;2022-12-01T06:43:27;118.87;;;44.87;;
16119;SDS011;12670;53.502;10.252;2022-12-01T06:46:30;115.07;;;43.13;;
16119;SDS011;12670;53.502;10.252;2022-12-01T06:49:33;108.97;;;42.60;;
16119;SDS011;12670;53.502;10.252;2022-12-01T06:52:36;118.43;;;42.80;;
16119;SDS011;12670;53.502;10.252;2022-12-01T06:55:40;111.07;;;42.20;;
16119;SDS011;12670;53.502;10.252;2022-12-01T06:58:43;116.73;;;43.47;;
16119;SDS011;12670;53.502;10.252;2022-12-01T07:01:46;114.13;;;42.90;;
16119;SDS011;12670;53.502;10.252;2022-12-01T07:04:48;118.57;;;44.03;;
16119;SDS011;12670;53.502;10.252;2022-12-01T07:07:51;113.33;;;42.50;;
16119;SDS011;12670;53.502;10.252;2022-12-01T07:11:01;115.73;;;42.53;;
16119;SDS011;12670;53.502;10.252;2022-12-01T07:14:05;112.00;;;43.43;;
16119;SDS011;12670;53.502;10.252;2022-12-01T07:17:08;116.47;;;41.93;;
16119;SDS011;12670;53.502;10.252;2022-12-01T07:20:11;113.87;;;41.33;;
16119;SDS011;12670;53.502;10.252;2022-12-01T07:23:13;110.23;;;42.03;;
16119;SDS011;12670;53.502;10.252;2022-12-01T07:26:17;119.57;;;42.53;;
16119;SDS011;12670;53.502;10.252;2022-12-01T07:29:20;116.83;;;42.87;;
16119;SDS011;12670;53.502;10.252;2022-12-01T07:32:23;120.00;;;41.43;;
16119;SDS011;12670;53.502;10.252;2022-12-01T07:35:25;117.57;;;42.73;;
16119;SDS011;12670;53.502;10.252;2022-12-01T07:38:28;123.40;;;42.97;;
16119;SDS011;12670;53.502;10.252;2022-12-01T07:41:33;120.40;;;41.87;;
16119;SDS011;12670;53.502;10.252;2022-12-01T07:44:36;119.00;;;42.03;;
16119;SDS011;12670;53.502;10.252;2022-12-01T07:47:38;119.43;;;41.57;;
16119;SDS011;12670;53.502;10.252;2022-12-01T07:50:41;119.57;;;41.60;;
16119;SDS011;12670;53.502;10.252;2022-12-01T07:53:44;124.27;;;43.80;;
16119;SDS011;12670;53.502;10.252;2022-12-01T07:56:48;126.97;;;43.60;;
16119;SDS011;12670;53.502;10.252;2022-12-01T07:59:51;119.33;;;42.30;;
16119;SDS011;12670;53.502;10.252;2022-12-01T08:02:54;111.50;;;40.73;;
16119;SDS011;12670;53.502;10.252;2022-12-01T08:05:56;113.77;;;41.60;;
16119;SDS011;12670;53.502;10.252;2022-12-01T08:09:00;124.53;;;41.97;;
16119;SDS011;12670;53.502;10.252;2022-12-01T08:12:04;126.63;;;41.47;;
16119;SDS011;12670;53.502;10.252;2022-12-01T08:15:07;128.40;;;42.67;;
16119;SDS011;12670;53.502;10.252;2022-12-01T08:18:11;120.47;;;40.60;;
16119;SDS011;12670;53.502;10.252;2022-12-01T08:21:14;119.87;;;42.37;;
16119;SDS011;12670;53.502;10.252;2022-12-01T08:24:18;122.33;;;43.53;;
16119;SDS011;12670;53.502;10.252;2022-12-01T08:27:22;128.67;;;44.13;;
16119;SDS011;12670;53.502;10.252;2022-12-01T08:30:25;130.90;;;42.23;;
16119;SDS011;12670;53.502;10.252;2022-12-01T08:33:28;122.70;;;41.30;;
16119;SDS011;12670;53.502;10.252;2022-12-01T08:36:31;133.90;;;43.63;;
16119;SDS011;12670;53.502;10.252;2022-12-01T08:39:34;129.20;;;42.83;;
16119;SDS011;12670;53.502;10.252;2022-12-01T08:42:38;117.17;;;40.20;;
16119;SDS011;12670;53.502;10.252;2022-12-01T08:45:41;110.10;;;39.60;;
16119;SDS011;12670;53.502;10.252;2022-12-01T08:48:44;107.47;;;38.43;;
16119;SDS011;12670;53.502;10.252;2022-12-01T08:51:46;111.87;;;40.50;;
16119;SDS011;12670;53.502;10.252;2022-12-01T08:54:49;100.10;;;38.00;;
16119;SDS011;12670;53.502;10.252;2022-12-01T08:57:53;105.67;;;37.77;;
16119;SDS011;12670;53.502;10.252;2022-12-01T09:01:02;98.27;;;36.27;;
16119;SDS011;12670;53.502;10.252;2022-12-01T09:04:08;84.50;;;33.60;;
16119;SDS011;12670;53.502;10.252;2022-12-01T09:07:10;91.17;;;33.83;;
16119;SDS011;12670;53.502;10.252;2022-12-01T09:10:15;85.73;;;33.13;;
16119;SDS011;12670;53.502;10.252;2022-12-01T09:13:19;89.03;;;34.33;;
16119;SDS011;12670;53.502;10.252;2022-12-01T09:16:22;90.53;;;34.03;;
16119;SDS011;12670;53.502;10.252;2022-12-01T09:19:25;86.07;;;33.03;;
16119;SDS011;12670;53.502;10.252;2022-12-01T09:22:29;88.93;;;33.47;;
16119;SDS011;12670;53.502;10.252;2022-12-01T09:25:32;91.70;;;34.83;;
16119;SDS011;12670;53.502;10.252;2022-12-01T09:28:36;78.03;;;31.90;;
16119;SDS011;12670;53.502;10.252;2022-12-01T09:31:39;79.03;;;30.90;;
16119;SDS011;12670;53.502;10.252;2022-12-01T09:34:42;81.83;;;30.43;;
16119;SDS011;12670;53.502;10.252;2022-12-01T09:37:45;75.33;;;31.07;;
16119;SDS011;12670;53.502;10.252;2022-12-01T09:40:48;75.10;;;29.50;;
16119;SDS011;12670;53.502;10.252;2022-12-01T09:43:55;74.97;;;30.07;;
16119;SDS011;12670;53.502;10.252;2022-12-01T09:47:04;76.23;;;29.70;;
16119;SDS011;12670;53.502;10.252;2022-12-01T09:50:11;86.63;;;31.33;;
16119;SDS011;12670;53.502;10.252;2022-12-01T09:53:19;141.53;;;41.17;;
16119;SDS011;12670;53.502;10.252;2022-12-01T09:56:24;162.47;;;43.37;;
16119;SDS011;12670;53.502;10.252;2022-12-01T09:59:31;159.67;;;44.97;;
16119;SDS011;12670;53.502;10.252;2022-12-01T10:02:38;149.33;;;41.60;;
16119;SDS011;12670;53.502;10.252;2022-12-01T10:05:44;139.33;;;41.03;;
16119;SDS011;12670;53.502;10.252;2022-12-01T10:09:13;130.07;;;37.27;;
16119;SDS011;12670;53.502;10.252;2022-12-01T10:12:23;108.47;;;35.33;;
16119;SDS011;12670;53.502;10.252;2022-12-01T10:15:32;109.80;;;34.10;;
16119;SDS011;12670;53.502;10.252;2022-12-01T10:18:45;103.47;;;34.13;;
16119;SDS011;12670;53.502;10.252;2022-12-01T10:21:58;107.87;;;33.20;;
16119;SDS011;12670;53.502;10.252;2022-12-01T10:25:16;94.87;;;31.40;;
16119;SDS011;12670;53.502;10.252;2022-12-01T10:28:27;111.27;;;34.33;;
16119;SDS011;12670;53.502;10.252;2022-12-01T10:31:53;95.90;;;32.13;;
16119;SDS011;12670;53.502;10.252;2022-12-01T10:34:58;95.20;;;31.40;;
16119;SDS011;12670;53.502;10.252;2022-12-01T10:38:01;83.80;;;30.70;;
16119;SDS011;12670;53.502;10.252;2022-12-01T10:41:09;83.80;;;30.23;;
16119;SDS011;12670;53.502;10.252;2022-12-01T10:44:16;78.03;;;28.70;;
16119;SDS011;12670;53.502;10.252;2022-12-01T10:47:21;82.37;;;27.37;;
16119;SDS011;12670;53.502;10.252;2022-12-01T10:50:26;78.67;;;28.37;;
16119;SDS011;12670;53.502;10.252;2022-12-01T10:53:30;77.83;;;29.00;;
16119;SDS011;12670;53.502;10.252;2022-12-01T10:56:34;71.97;;;26.13;;
16119;SDS011;12670;53.502;10.252;2022-12-01T10:59:42;76.97;;;27.80;;
16119;SDS011;12670;53.502;10.252;2022-12-01T11:02:52;74.40;;;27.90;;
16119;SDS011;12670;53.502;10.252;2022-12-01T11:05:56;74.93;;;28.50;;
16119;SDS011;12670;53.502;10.252;2022-12-01T11:09:01;75.07;;;26.60;;
16119;SDS011;12670;53.502;10.252;2022-12-01T11:12:11;78.83;;;26.47;;
16119;SDS011;12670;53.502;10.252;2022-12-01T11:15:17;74.10;;;25.57;;
16119;SDS011;12670;53.502;10.252;2022-12-01T11:18:28;77.43;;;25.20;;
16119;SDS011;12670;53.502;10.252;2022-12-01T11:21:33;63.70;;;22.83;;
16119;SDS011;12670;53.502;10.252;2022-12-01T11:24:39;80.40;;;24.40;;
16119;SDS011;12670;53.502;10.252;2022-12-01T11:27:47;72.50;;;24.13;;
16119;SDS011;12670;53.502;10.252;2022-12-01T11:30:56;82.87;;;25.50;;
16119;SDS011;12670;53.502;10.252;2022-12-01T11:34:01;76.17;;;22.93;;
16119;SDS011;12670;53.502;10.252;2022-12-01T11:37:05;79.83;;;25.00;;
16119;SDS011;12670;53.502;10.252;2022-12-01T11:40:13;88.37;;;25.93;;
16119;SDS011;12670;53.502;10.252;2022-12-01T11:43:22;84.83;;;26.13;;
16119;SDS011;12670;53.502;10.252;2022-12-01T11:46:29;82.80;;;25.10;;
16119;SDS011;12670;53.502;10.252;2022-12-01T11:49:36;90.43;;;26.57;;
16119;SDS011;12670;53.502;10.252;2022-12-01T11:52:47;86.73;;;24.93;;
16119;SDS011;12670;53.502;10.252;2022-12-01T11:55:50;82.60;;;25.83;;
16119;SDS011;12670;53.502;10.252;2022-12-01T11:58:53;84.67;;;25.63;;
16119;SDS011;12670;53.502;10.252;2022-12-01T12:02:12;77.87;;;23.93;;
16119;SDS011;12670;53.502;10.252;2022-12-01T12:08:56;86.93;;;24.27;;
16119;SDS011;12670;53.502;10.252;2022-12-01T12:12:18;91.47;;;24.57;;
16119;SDS011;12670;53.502;10.252;2022-12-01T12:15:35;80.93;;;24.33;;
16119;SDS011;12670;53.502;10.252;2022-12-01T12:18:57;88.27;;;24.67;;
16119;SDS011;12670;53.502;10.252;2022-12-01T12:22:14;80.27;;;24.23;;
16119;SDS011;12670;53.502;10.252;2022-12-01T12:25:29;80.10;;;23.33;;
16119;SDS011;12670;53.502;10.252;2022-12-01T12:28:49;79.03;;;22.77;;
16119;SDS011;12670;53.502;10.252;2022-12-01T12:32:02;75.80;;;22.53;;
16119;SDS011;12670;53.502;10.252;2022-12-01T12:35:20;71.13;;;22.60;;
16119;SDS011;12670;53.502;10.252;2022-12-01T12:38:35;82.30;;;22.10;;
16119;SDS011;12670;53.502;10.252;2022-12-01T12:41:51;76.73;;;21.43;;
16119;SDS011;12670;53.502;10.252;2022-12-01T12:44:57;66.90;;;22.10;;
16119;SDS011;12670;53.502;10.252;2022-12-01T12:48:11;75.23;;;20.30;;
16119;SDS011;12670;53.502;10.252;2022-12-01T12:51:24;72.30;;;20.70;;
16119;SDS011;12670;53.502;10.252;2022-12-01T12:54:35;60.33;;;19.70;;
16119;SDS011;12670;53.502;10.252;2022-12-01T12:57:45;66.30;;;19.87;;
16119;SDS011;12670;53.502;10.252;2022-12-01T13:00:54;68.57;;;21.27;;
16119;SDS011;12670;53.502;10.252;2022-12-01T13:04:02;65.70;;;20.60;;
16119;SDS011;12670;53.502;10.252;2022-12-01T13:07:10;60.10;;;18.57;;
16119;SDS011;12670;53.502;10.252;2022-12-01T13:10:25;61.93;;;19.30;;
16119;SDS011;12670;53.502;10.252;2022-12-01T13:13:35;62.33;;;19.70;;
16119;SDS011;12670;53.502;10.252;2022-12-01T13:16:44;57.73;;;18.67;;
16119;SDS011;12670;53.502;10.252;2022-12-01T13:19:49;58.90;;;18.77;;
16119;SDS011;12670;53.502;10.252;2022-12-01T13:22:52;63.20;;;19.30;;
16119;SDS011;12670;53.502;10.252;2022-12-01T13:25:58;57.60;;;18.80;;
16119;SDS011;12670;53.502;10.252;2022-12-01T13:29:03;59.13;;;19.20;;
16119;SDS011;12670;53.502;10.252;2022-12-01T13:32:20;51.93;;;17.40;;
16119;SDS011;12670;53.502;10.252;2022-12-01T13:35:29;49.33;;;17.20;;
16119;SDS011;12670;53.502;10.252;2022-12-01T13:38:34;56.00;;;17.03;;
16119;SDS011;12670;53.502;10.252;2022-12-01T13:41:39;54.57;;;17.37;;
16119;SDS011;12670;53.502;10.252;2022-12-01T13:44:48;52.37;;;16.50;;
16119;SDS011;12670;53.502;10.252;2022-12-01T13:47:54;51.93;;;15.40;;
16119;SDS011;12670;53.502;10.252;2022-12-01T13:50:58;51.37;;;16.50;;
16119;SDS011;12670;53.502;10.252;2022-12-01T13:54:03;59.93;;;16.80;;
16119;SDS011;12670;53.502;10.252;2022-12-01T13:57:11;54.77;;;16.23;;
16119;SDS011;12670;53.502;10.252;2022-12-01T14:00:26;52.20;;;16.90;;
16119;SDS011;12670;53.502;10.252;2022-12-01T14:03:39;55.80;;;16.43;;
16119;SDS011;12670;53.502;10.252;2022-12-01T14:06:43;58.87;;;18.40;;
16119;SDS011;12670;53.502;10.252;2022-12-01T14:09:50;55.33;;;16.60;;
16119;SDS011;12670;53.502;10.252;2022-12-01T14:12:56;55.70;;;17.97;;
16119;SDS011;12670;53.502;10.252;2022-12-01T14:16:03;56.33;;;17.87;;
16119;SDS011;12670;53.502;10.252;2022-12-01T14:19:09;60.53;;;18.43;;
16119;SDS011;12670;53.502;10.252;2022-12-01T14:22:30;57.53;;;17.00;;
16119;SDS011;12670;53.502;10.252;2022-12-01T14:25:34;47.33;;;16.10;;
16119;SDS011;12670;53.502;10.252;2022-12-01T14:32:21;48.53;;;17.23;;
16119;SDS011;12670;53.502;10.252;2022-12-01T14:35:24;52.80;;;17.77;;
16119;SDS011;12670;53.502;10.252;2022-12-01T14:38:27;58.50;;;17.73;;
16119;SDS011;12670;53.502;10.252;2022-12-01T14:41:30;50.17;;;17.00;;
16119;SDS011;12670;53.502;10.252;2022-12-01T14:44:42;52.40;;;16.37;;
16119;SDS011;12670;53.502;10.252;2022-12-01T14:47:50;52.10;;;16.80;;
16119;SDS011;12670;53.502;10.252;2022-12-01T14:51:06;48.93;;;16.47;;
16119;SDS011;12670;53.502;10.252;2022-12-01T14:54:14;49.80;;;16.00;;
16119;SDS011;12670;53.502;10.252;2022-12-01T14:57:23;55.50;;;18.13;;
16119;SDS011;12670;53.502;10.252;2022-12-01T15:00:32;55.13;;;17.00;;
16119;SDS011;12670;53.502;10.252;2022-12-01T15:03:38;52.83;;;17.70;;
16119;SDS011;12670;53.502;10.252;2022-12-01T15:06:43;54.07;;;17.07;;
16119;SDS011;12670;53.502;10.252;2022-12-01T15:09:56;49.50;;;17.57;;
16119;SDS011;12670;53.502;10.252;2022-12-01T15:13:11;53.33;;;17.47;;
16119;SDS011;12670;53.502;10.252;2022-12-01T15:16:16;55.63;;;17.97;;
16119;SDS011;12670;53.502;10.252;2022-12-01T15:19:21;57.03;;;19.33;;
16119;SDS011;12670;53.502;10.252;2022-12-01T15:22:25;70.40;;;19.70;;
16119;SDS011;12670;53.502;10.252;2022-12-01T15:25:31;61.83;;;18.93;;
16119;SDS011;12670;53.502;10.252;2022-12-01T15:28:37;58.40;;;18.73;;
16119;SDS011;12670;53.502;10.252;2022-12-01T15:31:42;56.73;;;18.83;;
16119;SDS011;12670;53.502;10.252;2022-12-01T15:34:47;60.47;;;19.10;;
16119;SDS011;12670;53.502;10.252;2022-12-01T15:37:53;67.70;;;20.07;;
16119;SDS011;12670;53.502;10.252;2022-12-01T15:40:57;59.43;;;18.27;;
16119;SDS011;12670;53.502;10.252;2022-12-01T15:44:25;65.93;;;21.27;;
16119;SDS011;12670;53.502;10.252;2022-12-01T15:47:31;71.00;;;20.97;;
16119;SDS011;12670;53.502;10.252;2022-12-01T15:50:37;68.23;;;21.10;;
16119;SDS011;12670;53.502;10.252;2022-12-01T15:53:47;81.33;;;22.87;;
16119;SDS011;12670;53.502;10.252;2022-12-01T15:56:54;74.77;;;21.33;;
16119;SDS011;12670;53.502;10.252;2022-12-01T15:59:58;79.10;;;21.43;;
16119;SDS011;12670;53.502;10.252;2022-12-01T16:03:02;78.33;;;22.30;;
16119;SDS011;12670;53.502;10.252;2022-12-01T16:06:09;81.70;;;22.60;;
16119;SDS011;12670;53.502;10.252;2022-12-01T16:09:17;86.77;;;22.27;;
16119;SDS011;12670;53.502;10.252;2022-12-01T16:12:23;80.57;;;22.07;;
16119;SDS011;12670;53.502;10.252;2022-12-01T16:15:27;91.67;;;23.23;;
16119;SDS011;12670;53.502;10.252;2022-12-01T16:18:31;94.47;;;24.47;;
16119;SDS011;12670;53.502;10.252;2022-12-01T16:21:40;90.27;;;24.07;;
16119;SDS011;12670;53.502;10.252;2022-12-01T16:24:47;96.40;;;25.83;;
16119;SDS011;12670;53.502;10.252;2022-12-01T16:27:53;92.00;;;24.53;;
16119;SDS011;12670;53.502;10.252;2022-12-01T16:30:58;93.07;;;25.43;;
16119;SDS011;12670;53.502;10.252;2022-12-01T16:34:02;87.50;;;23.50;;
16119;SDS011;12670;53.502;10.252;2022-12-01T16:37:25;99.67;;;25.63;;
16119;SDS011;12670;53.502;10.252;2022-12-01T16:40:28;103.30;;;25.57;;
16119;SDS011;12670;53.502;10.252;2022-12-01T16:43:31;103.80;;;26.70;;
16119;SDS011;12670;53.502;10.252;2022-12-01T16:46:33;103.23;;;28.90;;
16119;SDS011;12670;53.502;10.252;2022-12-01T16:49:37;104.30;;;27.73;;
16119;SDS011;12670;53.502;10.252;2022-12-01T16:52:40;111.60;;;29.13;;
16119;SDS011;12670;53.502;10.252;2022-12-01T16:55:46;108.40;;;27.87;;
16119;SDS011;12670;53.502;10.252;2022-12-01T16:58:52;113.50;;;29.00;;
16119;SDS011;12670;53.502;10.252;2022-12-01T17:01:54;106.70;;;29.17;;
16119;SDS011;12670;53.502;10.252;2022-12-01T17:04:58;110.97;;;30.17;;
16119;SDS011;12670;53.502;10.252;2022-12-01T17:08:01;114.30;;;28.47;;
16119;SDS011;12670;53.502;10.252;2022-12-01T17:11:04;107.30;;;28.93;;
16119;SDS011;12670;53.502;10.252;2022-12-01T17:14:07;103.97;;;28.93;;
16119;SDS011;12670;53.502;10.252;2022-12-01T17:17:10;118.00;;;29.40;;
16119;SDS011;12670;53.502;10.252;2022-12-01T17:20:14;115.47;;;28.97;;
16119;SDS011;12670;53.502;10.252;2022-12-01T17:23:17;114.10;;;28.87;;
16119;SDS011;12670;53.502;10.252;2022-12-01T17:26:20;115.80;;;32.17;;
16119;SDS011;12670;53.502;10.252;2022-12-01T17:29:23;100.43;;;30.17;;
16119;SDS011;12670;53.502;10.252;2022-12-01T17:32:26;96.83;;;26.23;;
16119;SDS011;12670;53.502;10.252;2022-12-01T17:35:30;91.23;;;28.57;;
16119;SDS011;12670;53.502;10.252;2022-12-01T17:38:33;88.90;;;24.80;;
16119;SDS011;12670;53.502;10.252;2022-12-01T17:41:37;77.40;;;22.90;;
16119;SDS011;12670;53.502;10.252;2022-12-01T17:44:42;80.30;;;21.67;;
16119;SDS011;12670;53.502;10.252;2022-12-01T17:47:44;73.63;;;23.73;;
16119;SDS011;12670;53.502;10.252;2022-12-01T17:50:49;68.10;;;22.20;;
16119;SDS011;12670;53.502;10.252;2022-12-01T17:53:51;67.53;;;22.90;;
16119;SDS011;12670;53.502;10.252;2022-12-01T17:56:55;75.33;;;22.33;;